createdAt,value
2018-12-13T00:01:50.087Z,8.51
2018-12-13T00:04:18.560Z,8.52
2018-12-13T00:06:47.071Z,8.56
2018-12-13T00:09:15.552Z,8.54
2018-12-13T00:11:44.158Z,8.53
2018-12-13T00:14:12.695Z,8.51
2018-12-13T00:16:41.229Z,8.47
2018-12-13T00:19:09.800Z,8.46
2018-12-13T00:21:38.359Z,8.42
2018-12-13T00:24:06.889Z,8.34
2018-12-13T00:26:35.387Z,8.24
2018-12-13T00:29:03.941Z,8.16
2018-12-13T00:31:32.523Z,8.05
2018-12-13T00:34:01.078Z,7.92
2018-12-13T00:36:29.591Z,7.85
2018-12-13T00:38:58.150Z,7.77
2018-12-13T00:41:26.622Z,7.70
2018-12-13T00:43:55.212Z,7.62
2018-12-13T00:46:23.733Z,7.56
2018-12-13T00:48:52.332Z,7.51
2018-12-13T00:51:20.854Z,7.41
2018-12-13T00:53:49.434Z,7.34
2018-12-13T00:56:17.951Z,7.31
2018-12-13T00:58:46.512Z,7.27
2018-12-13T01:01:15.007Z,7.22
2018-12-13T01:03:43.557Z,7.20
2018-12-13T01:06:12.106Z,7.18
2018-12-13T01:08:40.695Z,7.16
2018-12-13T01:11:09.160Z,7.15
2018-12-13T01:13:37.669Z,7.14
2018-12-13T01:16:08.203Z,7.13
2018-12-13T01:18:36.784Z,7.12
2018-12-13T01:21:05.354Z,7.04
2018-12-13T01:23:33.882Z,7.04
2018-12-13T01:26:02.377Z,7.02
2018-12-13T01:28:30.893Z,6.61
2018-12-13T01:30:59.372Z,6.92
2018-12-13T01:33:27.862Z,6.89
2018-12-13T01:35:56.343Z,6.85
2018-12-13T01:38:24.970Z,6.81
2018-12-13T01:40:53.505Z,6.77
2018-12-13T01:43:21.995Z,6.78
2018-12-13T01:45:50.537Z,6.78
2018-12-13T01:48:19.067Z,6.78
2018-12-13T01:50:47.622Z,6.78
2018-12-13T01:53:16.123Z,6.76
2018-12-13T01:55:44.732Z,6.72
2018-12-13T01:58:13.268Z,6.71
2018-12-13T02:00:41.912Z,6.67
2018-12-13T02:03:10.437Z,6.71
2018-12-13T02:05:39.055Z,6.71
2018-12-13T02:08:07.698Z,6.71
2018-12-13T02:10:36.228Z,6.76
2018-12-13T02:13:04.771Z,6.81
2018-12-13T02:15:33.882Z,6.91
2018-12-13T02:18:02.391Z,7.02
2018-12-13T02:20:30.994Z,7.11
2018-12-13T02:22:59.481Z,7.19
2018-12-13T02:25:28.025Z,7.23
2018-12-13T02:27:56.547Z,7.29
2018-12-13T02:30:25.089Z,7.32
2018-12-13T02:32:53.570Z,7.38
2018-12-13T02:35:22.099Z,7.41
2018-12-13T02:37:50.609Z,7.47
2018-12-13T02:40:19.245Z,7.46
2018-12-13T02:42:47.752Z,7.43
2018-12-13T02:45:16.264Z,7.38
2018-12-13T02:47:45.421Z,7.29
2018-12-13T02:50:14.022Z,7.28
2018-12-13T02:52:42.613Z,7.22
2018-12-13T02:55:11.160Z,7.20
2018-12-13T02:57:39.704Z,7.18
2018-12-13T03:00:08.251Z,7.15
2018-12-13T03:02:36.729Z,7.07
2018-12-13T03:05:05.811Z,7.00
2018-12-13T03:07:34.366Z,6.95
2018-12-13T03:10:02.930Z,6.91
2018-12-13T03:12:31.482Z,6.90
2018-12-13T03:15:00.035Z,6.85
2018-12-13T03:17:28.632Z,6.86
2018-12-13T03:19:57.160Z,6.77
2018-12-13T03:22:25.690Z,6.74
2018-12-13T03:24:54.178Z,6.68
2018-12-13T03:27:22.726Z,6.65
2018-12-13T03:29:51.262Z,6.59
2018-12-13T03:32:19.785Z,6.56
2018-12-13T03:34:49.095Z,6.52
2018-12-13T03:37:20.792Z,6.50
2018-12-13T03:39:48.460Z,6.50
2018-12-13T03:42:16.995Z,6.47
2018-12-13T03:44:45.525Z,6.44
2018-12-13T03:47:14.083Z,6.41
2018-12-13T03:49:42.587Z,6.39
2018-12-13T03:52:11.105Z,6.37
2018-12-13T03:54:39.651Z,6.35
2018-12-13T03:57:08.236Z,6.31
2018-12-13T03:59:36.751Z,6.32
2018-12-13T04:02:05.302Z,6.30
2018-12-13T04:04:33.851Z,6.23
2018-12-13T04:07:02.371Z,6.23
2018-12-13T04:09:30.886Z,6.20
2018-12-13T04:11:59.434Z,6.19
2018-12-13T04:14:27.977Z,6.17
2018-12-13T04:16:56.529Z,6.15
2018-12-13T04:19:25.028Z,6.10
2018-12-13T04:21:53.599Z,6.07
2018-12-13T04:24:22.089Z,6.06
2018-12-13T04:26:50.632Z,5.94
2018-12-13T04:29:19.123Z,5.96
2018-12-13T04:31:47.696Z,5.94
2018-12-13T04:34:16.256Z,5.89
2018-12-13T04:36:44.828Z,5.86
2018-12-13T04:39:13.340Z,5.80
2018-12-13T04:41:41.909Z,5.80
2018-12-13T04:44:10.416Z,5.76
2018-12-13T04:46:38.989Z,5.74
2018-12-13T04:49:07.481Z,5.69
2018-12-13T04:51:35.988Z,5.68
2018-12-13T04:54:04.494Z,5.64
2018-12-13T04:56:33.081Z,5.61
2018-12-13T04:59:01.668Z,5.60
2018-12-13T05:01:30.199Z,5.58
2018-12-13T05:03:58.683Z,5.55
2018-12-13T05:06:27.221Z,5.54
2018-12-13T05:08:55.822Z,5.49
2018-12-13T05:11:24.374Z,5.46
2018-12-13T05:13:53.042Z,5.41
2018-12-13T05:16:21.599Z,5.41
2018-12-13T05:18:50.097Z,5.39
2018-12-13T05:21:18.617Z,5.36
2018-12-13T05:23:48.947Z,5.32
2018-12-13T05:26:17.490Z,5.30
2018-12-13T05:28:46.102Z,5.25
2018-12-13T05:31:14.624Z,5.26
2018-12-13T05:33:43.206Z,5.23
2018-12-13T05:36:11.803Z,5.21
2018-12-13T05:38:40.483Z,5.19
2018-12-13T05:41:09.028Z,5.16
2018-12-13T05:43:37.604Z,5.15
2018-12-13T05:46:06.143Z,5.13
2018-12-13T05:48:34.672Z,5.11
2018-12-13T05:51:03.276Z,5.12
2018-12-13T05:53:31.877Z,5.10
2018-12-13T05:56:00.770Z,5.16
2018-12-13T05:58:29.404Z,5.13
2018-12-13T06:00:57.943Z,5.11
2018-12-13T06:03:26.499Z,5.11
2018-12-13T06:05:55.114Z,5.13
2018-12-13T06:08:23.760Z,5.12
2018-12-13T06:10:52.305Z,5.11
2018-12-13T06:13:20.902Z,5.09
2018-12-13T06:15:49.435Z,5.06
2018-12-13T06:18:17.952Z,5.06
2018-12-13T06:20:46.533Z,5.05
2018-12-13T06:23:15.120Z,5.03
2018-12-13T06:25:43.654Z,5.02
2018-12-13T06:28:12.133Z,4.97
2018-12-13T06:30:40.709Z,4.97
2018-12-13T06:33:09.298Z,4.95
2018-12-13T06:35:37.844Z,4.95
2018-12-13T06:38:06.401Z,4.94
2018-12-13T06:40:34.936Z,4.91
2018-12-13T06:43:03.525Z,4.90
2018-12-13T06:45:32.048Z,4.90
2018-12-13T06:48:00.647Z,4.86
2018-12-13T06:50:29.218Z,4.83
2018-12-13T06:52:57.789Z,4.84
2018-12-13T06:55:26.378Z,4.79
2018-12-13T06:57:54.916Z,4.79
2018-12-13T07:00:23.543Z,4.73
2018-12-13T07:02:52.246Z,4.75
2018-12-13T07:05:20.915Z,4.74
2018-12-13T07:07:49.594Z,4.73
2018-12-13T07:10:18.213Z,4.74
2018-12-13T07:12:46.789Z,4.68
2018-12-13T07:15:15.328Z,4.65
2018-12-13T07:17:43.902Z,4.65
2018-12-13T07:20:12.495Z,4.65
2018-12-13T07:22:41.061Z,4.63
2018-12-13T07:25:09.701Z,4.61
2018-12-13T07:27:38.555Z,4.67
2018-12-13T07:30:08.453Z,4.65
2018-12-13T07:32:37.043Z,4.61
2018-12-13T07:35:05.778Z,4.56
2018-12-13T07:37:34.374Z,4.59
2018-12-13T07:40:02.974Z,4.63
2018-12-13T07:42:31.542Z,4.66
2018-12-13T07:45:00.130Z,4.66
2018-12-13T07:47:28.750Z,4.63
2018-12-13T07:49:57.302Z,4.65
2018-12-13T07:52:25.877Z,4.66
2018-12-13T07:54:54.521Z,4.65
2018-12-13T07:57:23.060Z,4.69
2018-12-13T07:59:51.590Z,4.72
2018-12-13T08:02:20.153Z,4.76
2018-12-13T08:04:48.803Z,4.78
2018-12-13T08:07:17.389Z,4.79
2018-12-13T08:09:46.009Z,4.84
2018-12-13T08:12:14.533Z,4.90
2018-12-13T08:14:43.159Z,4.91
2018-12-13T08:17:11.683Z,4.91
2018-12-13T08:19:40.237Z,5.00
2018-12-13T08:22:08.775Z,5.39
2018-12-13T08:24:37.838Z,6.24
2018-12-13T08:27:06.537Z,7.33
2018-12-13T08:29:35.102Z,8.33
2018-12-13T08:32:03.683Z,9.22
2018-12-13T08:34:32.267Z,10.00
2018-12-13T08:37:00.911Z,10.72
2018-12-13T08:39:29.548Z,11.36
2018-12-13T08:41:58.052Z,11.98
2018-12-13T08:44:26.609Z,12.56
2018-12-13T08:46:55.233Z,13.13
2018-12-13T08:49:33.845Z,13.51
2018-12-13T08:52:02.528Z,13.97
2018-12-13T08:54:31.096Z,14.54
2018-12-13T08:56:59.745Z,14.94
2018-12-13T08:59:28.335Z,15.34
2018-12-13T09:01:56.981Z,15.75
2018-12-13T09:04:25.503Z,16.18
2018-12-13T09:06:54.004Z,16.26
2018-12-13T09:09:22.650Z,16.49
2018-12-13T09:11:51.181Z,17.04
2018-12-13T09:14:19.959Z,17.56
2018-12-13T09:16:48.510Z,18.17
2018-12-13T09:19:17.098Z,18.57
2018-12-13T09:21:45.570Z,18.94
2018-12-13T09:24:14.299Z,19.34
2018-12-13T09:26:42.840Z,19.68
2018-12-13T09:29:11.397Z,19.85
2018-12-13T09:31:40.193Z,20.07
2018-12-13T09:34:08.718Z,20.32
2018-12-13T09:36:37.358Z,20.64
2018-12-13T09:39:07.415Z,20.72
2018-12-13T09:41:36.007Z,20.59
2018-12-13T09:44:04.589Z,20.73
2018-12-13T09:46:33.242Z,20.67
2018-12-13T09:49:01.825Z,20.88
2018-12-13T09:51:30.356Z,21.09
2018-12-13T09:53:59.074Z,21.11
2018-12-13T09:56:27.550Z,21.42
2018-12-13T09:58:56.104Z,21.71
2018-12-13T10:01:24.600Z,22.15
2018-12-13T10:03:53.640Z,22.57
2018-12-13T10:06:22.143Z,22.86
2018-12-13T10:08:50.743Z,23.31
2018-12-13T10:11:19.252Z,23.46
2018-12-13T10:13:47.781Z,23.89
2018-12-13T10:16:16.387Z,23.95
2018-12-13T10:18:44.901Z,24.19
2018-12-13T10:21:13.517Z,24.12
2018-12-13T10:23:42.068Z,24.27
2018-12-13T10:26:10.567Z,24.68
2018-12-13T10:28:39.056Z,24.50
2018-12-13T10:31:07.596Z,24.54
2018-12-13T10:33:36.141Z,24.63
2018-12-13T10:36:04.881Z,24.51
2018-12-13T10:38:33.390Z,24.50
2018-12-13T10:41:01.973Z,24.72
2018-12-13T10:43:30.415Z,24.86
2018-12-13T10:45:58.903Z,24.99
2018-12-13T10:48:27.430Z,24.63
2018-12-13T10:50:56.002Z,24.60
2018-12-13T10:53:24.593Z,24.59
2018-12-13T10:55:53.185Z,24.84
2018-12-13T10:58:21.769Z,25.17
2018-12-13T11:00:55.505Z,25.58
2018-12-13T11:03:29.312Z,26.00
2018-12-13T11:05:57.841Z,26.58
2018-12-13T11:08:26.373Z,27.06
2018-12-13T11:10:54.900Z,27.13
2018-12-13T11:13:23.466Z,27.44
2018-12-13T11:15:52.048Z,27.57
2018-12-13T11:18:20.638Z,27.90
2018-12-13T11:20:49.150Z,27.98
2018-12-13T11:23:17.728Z,27.63
2018-12-13T11:25:46.257Z,27.66
2018-12-13T11:28:26.017Z,27.75
2018-12-13T11:30:54.546Z,28.14
2018-12-13T11:33:23.220Z,28.72
2018-12-13T11:35:51.747Z,28.74
2018-12-13T11:38:20.333Z,29.17
2018-12-13T11:40:49.019Z,29.25
2018-12-13T11:43:17.600Z,29.40
2018-12-13T11:45:46.560Z,29.29
2018-12-13T11:48:15.333Z,29.63
2018-12-13T11:50:43.871Z,29.85
2018-12-13T11:53:12.427Z,29.92
2018-12-13T11:55:41.040Z,29.97
2018-12-13T11:58:15.452Z,29.88
2018-12-13T12:00:43.966Z,30.02
2018-12-13T12:03:12.477Z,30.18
2018-12-13T12:05:41.146Z,30.01
2018-12-13T12:08:09.599Z,30.05
2018-12-13T12:10:38.097Z,29.68
2018-12-13T12:13:06.598Z,29.51
2018-12-13T12:15:35.348Z,29.54
2018-12-13T12:18:03.921Z,28.88
2018-12-13T12:20:32.441Z,28.61
2018-12-13T12:23:00.947Z,28.65
2018-12-13T12:25:29.658Z,28.51
2018-12-13T12:27:58.215Z,27.07
2018-12-13T12:30:26.770Z,26.41
2018-12-13T12:32:55.333Z,25.37
2018-12-13T12:35:23.780Z,25.05
2018-12-13T12:37:52.239Z,24.74
2018-12-13T12:40:20.773Z,24.69
2018-12-13T12:42:49.222Z,24.22
2018-12-13T12:45:17.738Z,24.00
2018-12-13T12:47:46.278Z,24.03
2018-12-13T12:50:14.798Z,24.07
2018-12-13T12:52:43.254Z,23.52
2018-12-13T12:55:11.753Z,22.27
2018-12-13T12:57:40.239Z,20.91
2018-12-13T13:00:10.236Z,19.30
2018-12-13T13:02:38.999Z,17.80
2018-12-13T13:05:07.466Z,16.61
2018-12-13T13:07:35.983Z,15.58
2018-12-13T13:10:04.837Z,14.93
2018-12-13T13:12:33.359Z,14.31
2018-12-13T13:15:01.875Z,13.79
2018-12-13T13:17:30.331Z,13.45
2018-12-13T13:19:58.810Z,13.04
2018-12-13T13:22:27.311Z,12.76
2018-12-13T13:24:55.738Z,12.53
2018-12-13T13:27:24.226Z,12.29
2018-12-13T13:29:52.700Z,12.19
2018-12-13T13:32:21.198Z,11.98
2018-12-13T13:34:49.655Z,11.86
2018-12-13T13:37:18.103Z,11.71
2018-12-13T13:39:46.586Z,11.48
2018-12-13T13:42:15.041Z,11.34
2018-12-13T13:44:43.717Z,11.16
2018-12-13T13:47:12.278Z,10.96
2018-12-13T13:49:40.753Z,10.81
2018-12-13T13:52:09.385Z,10.74
2018-12-13T13:54:37.897Z,10.66
2018-12-13T13:57:06.373Z,10.60
2018-12-13T13:59:34.851Z,10.49
2018-12-13T14:02:03.329Z,10.41
2018-12-13T14:04:31.806Z,10.35
2018-12-13T14:07:00.332Z,10.22
2018-12-13T14:09:28.786Z,10.23
2018-12-13T14:11:57.278Z,10.08
2018-12-13T14:14:25.797Z,9.98
2018-12-13T14:16:54.277Z,9.94
2018-12-13T14:19:22.685Z,9.84
2018-12-13T14:21:51.323Z,9.75
2018-12-13T14:24:19.777Z,9.63
2018-12-13T14:26:48.298Z,9.58
2018-12-13T14:29:16.798Z,9.46
2018-12-13T14:31:45.259Z,9.42
2018-12-13T14:34:13.730Z,9.39
2018-12-13T14:36:42.265Z,9.26
2018-12-13T14:39:10.793Z,9.24
2018-12-13T14:41:39.646Z,9.26
2018-12-13T14:44:08.103Z,9.18
2018-12-13T14:46:36.529Z,9.13
2018-12-13T14:49:05.011Z,9.07
2018-12-13T14:51:33.535Z,8.87
2018-12-13T14:54:02.115Z,8.80
2018-12-13T14:56:30.568Z,8.69
2018-12-13T14:58:59.137Z,8.65
2018-12-13T15:01:27.633Z,8.57
2018-12-13T15:03:56.406Z,8.55
2018-12-13T15:06:24.894Z,8.47
2018-12-13T15:08:53.430Z,8.42
2018-12-13T15:11:21.885Z,8.32
2018-12-13T15:13:50.395Z,8.24
2018-12-13T15:16:18.976Z,8.12
2018-12-13T15:18:47.596Z,8.03
2018-12-13T15:21:25.878Z,7.91
2018-12-13T15:23:54.406Z,7.86
2018-12-13T15:26:22.914Z,7.80
2018-12-13T15:28:51.477Z,7.77
2018-12-13T15:31:19.936Z,7.68
2018-12-13T15:33:48.503Z,7.64
2018-12-13T15:36:16.952Z,7.53
2018-12-13T15:38:45.450Z,7.45
2018-12-13T15:41:13.951Z,7.41
2018-12-13T15:43:42.452Z,7.40
2018-12-13T15:46:10.927Z,7.33
2018-12-13T15:48:39.443Z,7.28
2018-12-13T15:51:08.037Z,7.21
2018-12-13T15:53:36.526Z,7.16
2018-12-13T15:56:05.205Z,7.12
2018-12-13T15:58:33.762Z,7.11
2018-12-13T16:01:02.220Z,7.08
2018-12-13T16:03:30.723Z,7.07
2018-12-13T16:05:59.249Z,7.02
2018-12-13T16:08:28.199Z,6.98
2018-12-13T16:10:56.685Z,6.95
2018-12-13T16:13:25.153Z,6.97
2018-12-13T16:15:53.618Z,6.95
2018-12-13T16:18:22.081Z,6.90
2018-12-13T16:20:50.701Z,6.86
2018-12-13T16:23:19.223Z,6.79
2018-12-13T16:25:47.728Z,6.78
2018-12-13T16:28:16.206Z,6.72
2018-12-13T16:30:44.691Z,6.70
2018-12-13T16:33:13.246Z,6.66
2018-12-13T16:35:41.804Z,6.62
2018-12-13T16:38:10.445Z,6.61
2018-12-13T16:40:38.941Z,6.60
2018-12-13T16:43:07.435Z,6.56
2018-12-13T16:45:35.915Z,6.53
2018-12-13T16:48:04.363Z,6.55
2018-12-13T16:50:32.898Z,6.54
2018-12-13T16:53:01.469Z,6.57
2018-12-13T16:55:29.913Z,6.55
2018-12-13T16:57:58.421Z,6.54
2018-12-13T17:00:26.950Z,6.55
2018-12-13T17:02:55.558Z,6.55
2018-12-13T17:05:24.025Z,6.52
2018-12-13T17:07:52.468Z,6.49
2018-12-13T17:10:20.975Z,6.43
2018-12-13T17:12:49.446Z,6.37
2018-12-13T17:15:17.939Z,6.35
2018-12-13T17:17:46.430Z,6.30
2018-12-13T17:20:14.933Z,6.26
2018-12-13T17:22:43.397Z,6.27
2018-12-13T17:25:11.880Z,6.29
2018-12-13T17:27:40.357Z,6.30
2018-12-13T17:30:09.753Z,6.34
2018-12-13T17:32:39.100Z,6.37
2018-12-13T17:35:07.632Z,6.44
2018-12-13T17:37:36.125Z,6.49
2018-12-13T17:40:04.582Z,6.54
2018-12-13T17:42:33.070Z,6.58
2018-12-13T17:51:01.319Z,6.64
2018-12-13T17:53:29.908Z,6.70
2018-12-13T17:55:58.466Z,6.76
2018-12-13T18:01:22.700Z,6.83
2018-12-13T18:03:51.188Z,6.85
2018-12-13T18:06:19.765Z,6.87
2018-12-13T18:08:48.346Z,6.88
2018-12-13T18:11:16.925Z,6.88
2018-12-13T18:13:45.553Z,6.91
2018-12-13T18:16:14.291Z,6.92
2018-12-13T18:18:43.014Z,6.91
2018-12-13T18:21:13.006Z,6.92
2018-12-13T18:23:41.585Z,6.51
2018-12-13T18:26:10.088Z,6.84
2018-12-13T18:28:41.745Z,6.81
2018-12-13T18:31:10.396Z,6.77
2018-12-13T18:33:39.046Z,6.77
2018-12-13T18:36:07.574Z,6.78
2018-12-13T18:38:36.199Z,6.78
2018-12-13T18:41:04.681Z,6.81
2018-12-13T18:43:33.182Z,6.84
2018-12-13T18:46:01.706Z,6.86
2018-12-13T18:48:30.334Z,6.91
2018-12-13T18:50:58.841Z,6.90
2018-12-13T18:53:27.337Z,6.96
2018-12-13T18:55:55.845Z,6.93
2018-12-13T18:58:24.301Z,6.90
2018-12-13T19:00:53.003Z,6.89
2018-12-13T19:03:21.580Z,6.91
2018-12-13T19:05:50.085Z,6.94
2018-12-13T19:08:18.674Z,6.98
2018-12-13T19:10:47.330Z,7.00
2018-12-13T19:13:16.321Z,7.01
2018-12-13T19:15:44.922Z,7.02
2018-12-13T19:18:13.509Z,7.04
2018-12-13T19:20:42.128Z,7.02
2018-12-13T19:23:10.753Z,7.01
2018-12-13T19:25:39.637Z,7.02
2018-12-13T19:28:08.404Z,7.03
2018-12-13T19:30:36.910Z,7.03
2018-12-13T19:33:05.462Z,7.04
2018-12-13T19:35:34.365Z,7.01
2018-12-13T19:38:02.926Z,6.94
2018-12-13T19:40:31.948Z,6.87
2018-12-13T19:43:01.640Z,6.79
2018-12-13T19:45:30.217Z,6.73
2018-12-13T19:47:58.813Z,6.69
2018-12-13T19:50:27.321Z,6.61
2018-12-13T19:52:55.982Z,6.57
2018-12-13T19:55:24.498Z,6.55
2018-12-13T19:57:53.569Z,6.51
2018-12-13T20:00:22.207Z,6.51
2018-12-13T20:02:50.839Z,6.53
2018-12-13T20:05:19.379Z,6.53
2018-12-13T20:07:47.874Z,6.56
2018-12-13T20:10:16.373Z,6.61
2018-12-13T20:12:45.479Z,6.67
2018-12-13T20:15:14.060Z,6.71
2018-12-13T20:17:42.562Z,6.73
2018-12-13T20:20:11.031Z,6.75
2018-12-13T20:22:39.516Z,6.72
2018-12-13T20:25:09.528Z,6.63
2018-12-13T20:27:38.014Z,6.49
2018-12-13T20:30:08.022Z,6.41
2018-12-13T20:32:36.715Z,6.33
2018-12-13T20:35:05.719Z,6.28
2018-12-13T20:37:34.285Z,6.23
2018-12-13T20:40:02.820Z,6.20
2018-12-13T20:42:31.330Z,6.13
2018-12-13T20:45:00.069Z,6.06
2018-12-13T20:47:28.588Z,6.04
2018-12-13T20:49:57.238Z,6.00
2018-12-13T20:52:25.830Z,5.90
2018-12-13T20:54:54.326Z,5.86
2018-12-13T20:57:22.850Z,5.84
2018-12-13T20:59:51.391Z,5.78
2018-12-13T21:02:19.993Z,5.77
2018-12-13T21:04:48.664Z,5.75
2018-12-13T21:07:22.456Z,5.74
2018-12-13T21:09:51.317Z,5.68
2018-12-13T21:12:19.974Z,5.74
2018-12-13T21:14:48.794Z,5.78
2018-12-13T21:17:17.336Z,5.84
2018-12-13T21:19:45.847Z,5.83
2018-12-13T21:22:14.341Z,5.90
2018-12-13T21:24:42.884Z,5.98
2018-12-13T21:27:11.369Z,6.01
2018-12-13T21:29:39.864Z,6.07
2018-12-13T21:32:08.395Z,6.14
2018-12-13T21:34:36.897Z,6.19
2018-12-13T21:37:05.416Z,6.21
2018-12-13T21:39:33.968Z,6.21
2018-12-13T21:42:02.584Z,6.19
2018-12-13T21:44:31.053Z,6.13
2018-12-13T21:46:59.547Z,6.09
2018-12-13T21:49:27.990Z,6.10
2018-12-13T21:51:56.580Z,6.11
2018-12-13T21:54:25.109Z,6.16
2018-12-13T21:56:53.726Z,6.16
2018-12-13T21:59:22.311Z,6.21
2018-12-13T22:01:50.861Z,6.21
2018-12-13T22:04:19.380Z,6.20
2018-12-13T22:06:47.921Z,6.23
2018-12-13T22:09:16.403Z,6.19
2018-12-13T22:11:44.900Z,6.16
2018-12-13T22:14:13.475Z,5.57
2018-12-13T22:16:41.945Z,6.05
2018-12-13T22:19:19.017Z,6.00
2018-12-13T22:21:47.522Z,3.92
2018-12-13T22:24:16.612Z,5.88
2018-12-13T22:30:02.608Z,5.88
2018-12-13T22:32:31.332Z,5.92
2018-12-13T22:34:59.810Z,6.00
2018-12-13T22:37:28.339Z,6.03
2018-12-13T22:39:56.881Z,6.05
2018-12-13T22:42:25.404Z,6.06
2018-12-13T22:44:53.928Z,6.08
2018-12-13T22:47:22.549Z,6.11
2018-12-13T22:49:51.112Z,6.17
2018-12-13T22:52:19.628Z,6.16
2018-12-13T22:54:48.186Z,6.20
2018-12-13T22:57:16.799Z,6.16
2018-12-13T22:59:46.437Z,6.21
2018-12-13T23:02:15.057Z,6.22
2018-12-13T23:04:43.630Z,6.21
2018-12-13T23:07:12.134Z,6.21
2018-12-13T23:09:40.617Z,6.20
2018-12-13T23:12:09.154Z,6.22
2018-12-13T23:14:37.802Z,6.26
2018-12-13T23:17:06.284Z,6.28
2018-12-13T23:19:34.734Z,6.33
2018-12-13T23:22:03.220Z,6.35
2018-12-13T23:24:31.698Z,6.38
2018-12-13T23:27:00.150Z,6.41
2018-12-13T23:29:28.660Z,6.40
2018-12-13T23:31:57.393Z,6.43
2018-12-13T23:34:25.903Z,6.43
2018-12-13T23:36:54.778Z,6.39
2018-12-13T23:39:23.337Z,6.41
2018-12-13T23:41:51.776Z,6.41
2018-12-13T23:44:20.305Z,6.38
2018-12-13T23:46:48.904Z,6.41
2018-12-13T23:49:17.400Z,6.40
2018-12-13T23:51:45.926Z,6.39
2018-12-13T23:54:14.437Z,6.38
2018-12-13T23:56:42.893Z,6.36
2018-12-13T23:59:15.216Z,6.37
